sensor_id;sensor_type;location;lat;lon;timestamp;P1;durP1;ratioP1;P2;durP2;ratioP2
12165;SDS011;6146;48.128;11.476;2024-02-21T00:00:04;6.60;;;2.50;;
12165;SDS011;6146;48.128;11.476;2024-02-21T00:02:30;3.60;;;2.50;;
12165;SDS011;6146;48.128;11.476;2024-02-21T00:04:56;3.37;;;2.50;;
12165;SDS011;6146;48.128;11.476;2024-02-21T00:07:21;3.73;;;2.33;;
12165;SDS011;6146;48.128;11.476;2024-02-21T00:09:47;5.40;;;2.27;;
12165;SDS011;6146;48.128;11.476;2024-02-21T00:12:13;5.17;;;2.47;;
12165;SDS011;6146;48.128;11.476;2024-02-21T00:14:39;3.30;;;2.10;;
12165;SDS011;6146;48.128;11.476;2024-02-21T00:17:05;3.33;;;2.13;;
12165;SDS011;6146;48.128;11.476;2024-02-21T00:19:31;5.27;;;2.30;;
12165;SDS011;6146;48.128;11.476;2024-02-21T00:21:56;6.17;;;2.40;;
12165;SDS011;6146;48.128;11.476;2024-02-21T00:24:22;2.30;;;1.90;;
12165;SDS011;6146;48.128;11.476;2024-02-21T00:26:47;4.60;;;2.00;;
12165;SDS011;6146;48.128;11.476;2024-02-21T00:29:13;2.90;;;2.23;;
12165;SDS011;6146;48.128;11.476;2024-02-21T00:31:38;4.57;;;2.40;;
12165;SDS011;6146;48.128;11.476;2024-02-21T00:34:04;4.30;;;2.60;;
12165;SDS011;6146;48.128;11.476;2024-02-21T00:36:29;3.40;;;2.17;;
12165;SDS011;6146;48.128;11.476;2024-02-21T00:38:55;4.67;;;2.43;;
12165;SDS011;6146;48.128;11.476;2024-02-21T00:41:20;4.37;;;2.27;;
12165;SDS011;6146;48.128;11.476;2024-02-21T00:43:46;6.53;;;2.63;;
12165;SDS011;6146;48.128;11.476;2024-02-21T00:46:13;4.27;;;2.00;;
12165;SDS011;6146;48.128;11.476;2024-02-21T00:48:39;3.50;;;2.60;;
12165;SDS011;6146;48.128;11.476;2024-02-21T00:51:04;4.07;;;2.50;;
12165;SDS011;6146;48.128;11.476;2024-02-21T00:53:30;4.33;;;2.43;;
12165;SDS011;6146;48.128;11.476;2024-02-21T00:55:55;3.33;;;2.13;;
12165;SDS011;6146;48.128;11.476;2024-02-21T00:58:22;4.17;;;2.33;;
12165;SDS011;6146;48.128;11.476;2024-02-21T01:00:47;4.90;;;2.27;;
12165;SDS011;6146;48.128;11.476;2024-02-21T01:03:13;2.93;;;2.33;;
12165;SDS011;6146;48.128;11.476;2024-02-21T01:05:38;3.47;;;2.53;;
12165;SDS011;6146;48.128;11.476;2024-02-21T01:08:04;6.60;;;2.60;;
12165;SDS011;6146;48.128;11.476;2024-02-21T01:10:30;3.53;;;2.10;;
12165;SDS011;6146;48.128;11.476;2024-02-21T01:12:55;2.70;;;2.10;;
12165;SDS011;6146;48.128;11.476;2024-02-21T01:15:21;6.10;;;2.37;;
12165;SDS011;6146;48.128;11.476;2024-02-21T01:17:47;4.73;;;2.50;;
12165;SDS011;6146;48.128;11.476;2024-02-21T01:20:12;2.63;;;2.00;;
12165;SDS011;6146;48.128;11.476;2024-02-21T01:22:38;2.90;;;2.10;;
12165;SDS011;6146;48.128;11.476;2024-02-21T01:25:04;4.03;;;2.60;;
12165;SDS011;6146;48.128;11.476;2024-02-21T01:27:30;3.37;;;2.27;;
12165;SDS011;6146;48.128;11.476;2024-02-21T01:29:56;2.80;;;2.00;;
12165;SDS011;6146;48.128;11.476;2024-02-21T01:32:22;2.80;;;1.97;;
12165;SDS011;6146;48.128;11.476;2024-02-21T01:34:49;4.93;;;2.30;;
12165;SDS011;6146;48.128;11.476;2024-02-21T01:37:15;3.63;;;2.10;;
12165;SDS011;6146;48.128;11.476;2024-02-21T01:39:40;3.80;;;2.17;;
12165;SDS011;6146;48.128;11.476;2024-02-21T01:42:06;2.73;;;2.00;;
12165;SDS011;6146;48.128;11.476;2024-02-21T01:44:32;3.27;;;2.10;;
12165;SDS011;6146;48.128;11.476;2024-02-21T01:46:57;4.57;;;2.60;;
12165;SDS011;6146;48.128;11.476;2024-02-21T01:49:23;2.47;;;2.00;;
12165;SDS011;6146;48.128;11.476;2024-02-21T01:51:49;1.93;;;1.60;;
12165;SDS011;6146;48.128;11.476;2024-02-21T01:54:15;5.10;;;2.17;;
12165;SDS011;6146;48.128;11.476;2024-02-21T01:56:42;2.40;;;1.93;;
12165;SDS011;6146;48.128;11.476;2024-02-21T01:59:08;6.13;;;2.00;;
12165;SDS011;6146;48.128;11.476;2024-02-21T02:01:34;3.53;;;2.00;;
12165;SDS011;6146;48.128;11.476;2024-02-21T02:03:59;3.23;;;1.77;;
12165;SDS011;6146;48.128;11.476;2024-02-21T02:06:25;2.73;;;2.00;;
12165;SDS011;6146;48.128;11.476;2024-02-21T02:08:51;2.60;;;1.80;;
12165;SDS011;6146;48.128;11.476;2024-02-21T02:11:17;3.20;;;1.73;;
12165;SDS011;6146;48.128;11.476;2024-02-21T02:13:43;3.13;;;2.13;;
12165;SDS011;6146;48.128;11.476;2024-02-21T02:16:09;2.20;;;2.00;;
12165;SDS011;6146;48.128;11.476;2024-02-21T02:18:34;4.73;;;2.00;;
12165;SDS011;6146;48.128;11.476;2024-02-21T02:21:00;2.80;;;2.10;;
12165;SDS011;6146;48.128;11.476;2024-02-21T02:23:29;3.47;;;1.87;;
12165;SDS011;6146;48.128;11.476;2024-02-21T02:25:56;2.80;;;1.83;;
12165;SDS011;6146;48.128;11.476;2024-02-21T02:28:22;3.33;;;2.10;;
12165;SDS011;6146;48.128;11.476;2024-02-21T02:30:48;2.93;;;1.50;;
12165;SDS011;6146;48.128;11.476;2024-02-21T02:33:14;3.10;;;1.80;;
12165;SDS011;6146;48.128;11.476;2024-02-21T02:35:40;2.57;;;1.80;;
12165;SDS011;6146;48.128;11.476;2024-02-21T02:38:05;3.63;;;1.70;;
12165;SDS011;6146;48.128;11.476;2024-02-21T02:40:33;2.10;;;1.63;;
12165;SDS011;6146;48.128;11.476;2024-02-21T02:42:59;3.33;;;2.13;;
12165;SDS011;6146;48.128;11.476;2024-02-21T02:45:24;2.10;;;1.70;;
12165;SDS011;6146;48.128;11.476;2024-02-21T02:47:53;2.23;;;1.80;;
12165;SDS011;6146;48.128;11.476;2024-02-21T02:50:19;1.87;;;1.40;;
12165;SDS011;6146;48.128;11.476;2024-02-21T02:52:45;3.03;;;1.90;;
12165;SDS011;6146;48.128;11.476;2024-02-21T02:55:10;5.03;;;2.40;;
12165;SDS011;6146;48.128;11.476;2024-02-21T02:57:36;3.23;;;1.80;;
12165;SDS011;6146;48.128;11.476;2024-02-21T03:00:02;4.70;;;1.90;;
12165;SDS011;6146;48.128;11.476;2024-02-21T03:02:28;3.13;;;2.17;;
12165;SDS011;6146;48.128;11.476;2024-02-21T03:04:55;2.77;;;1.47;;
12165;SDS011;6146;48.128;11.476;2024-02-21T03:07:20;2.40;;;1.70;;
12165;SDS011;6146;48.128;11.476;2024-02-21T03:09:46;2.53;;;1.63;;
12165;SDS011;6146;48.128;11.476;2024-02-21T03:12:11;2.00;;;1.73;;
12165;SDS011;6146;48.128;11.476;2024-02-21T03:14:37;3.97;;;1.70;;
12165;SDS011;6146;48.128;11.476;2024-02-21T03:17:02;2.63;;;1.70;;
12165;SDS011;6146;48.128;11.476;2024-02-21T03:19:29;2.97;;;1.40;;
12165;SDS011;6146;48.128;11.476;2024-02-21T03:21:55;2.37;;;1.43;;
12165;SDS011;6146;48.128;11.476;2024-02-21T03:24:20;1.83;;;1.60;;
12165;SDS011;6146;48.128;11.476;2024-02-21T03:26:46;1.47;;;1.37;;
12165;SDS011;6146;48.128;11.476;2024-02-21T03:29:14;1.37;;;1.27;;
12165;SDS011;6146;48.128;11.476;2024-02-21T03:31:40;1.67;;;1.57;;
12165;SDS011;6146;48.128;11.476;2024-02-21T03:34:06;2.23;;;1.30;;
12165;SDS011;6146;48.128;11.476;2024-02-21T03:36:32;4.10;;;1.90;;
12165;SDS011;6146;48.128;11.476;2024-02-21T03:38:58;2.13;;;1.50;;
12165;SDS011;6146;48.128;11.476;2024-02-21T03:41:24;2.13;;;1.53;;
12165;SDS011;6146;48.128;11.476;2024-02-21T03:43:49;5.03;;;1.83;;
12165;SDS011;6146;48.128;11.476;2024-02-21T03:46:15;2.23;;;1.70;;
12165;SDS011;6146;48.128;11.476;2024-02-21T03:48:40;3.27;;;1.53;;
12165;SDS011;6146;48.128;11.476;2024-02-21T03:51:06;1.60;;;1.40;;
12165;SDS011;6146;48.128;11.476;2024-02-21T03:53:32;2.97;;;1.50;;
12165;SDS011;6146;48.128;11.476;2024-02-21T03:56:00;2.77;;;2.03;;
12165;SDS011;6146;48.128;11.476;2024-02-21T03:58:28;3.67;;;1.73;;
12165;SDS011;6146;48.128;11.476;2024-02-21T04:00:59;2.63;;;1.57;;
12165;SDS011;6146;48.128;11.476;2024-02-21T04:03:25;1.83;;;1.40;;
12165;SDS011;6146;48.128;11.476;2024-02-21T04:05:51;3.53;;;1.40;;
12165;SDS011;6146;48.128;11.476;2024-02-21T04:08:17;2.90;;;1.70;;
12165;SDS011;6146;48.128;11.476;2024-02-21T04:10:42;2.93;;;1.67;;
12165;SDS011;6146;48.128;11.476;2024-02-21T04:13:08;1.43;;;1.33;;
12165;SDS011;6146;48.128;11.476;2024-02-21T04:15:34;1.43;;;1.30;;
12165;SDS011;6146;48.128;11.476;2024-02-21T04:18:00;3.90;;;1.40;;
12165;SDS011;6146;48.128;11.476;2024-02-21T04:20:25;2.10;;;1.47;;
12165;SDS011;6146;48.128;11.476;2024-02-21T04:22:51;2.40;;;1.50;;
12165;SDS011;6146;48.128;11.476;2024-02-21T04:25:16;3.37;;;1.30;;
12165;SDS011;6146;48.128;11.476;2024-02-21T04:27:42;2.43;;;1.37;;
12165;SDS011;6146;48.128;11.476;2024-02-21T04:30:08;1.50;;;1.20;;
12165;SDS011;6146;48.128;11.476;2024-02-21T04:32:35;2.10;;;1.90;;
12165;SDS011;6146;48.128;11.476;2024-02-21T04:35:00;3.33;;;1.60;;
12165;SDS011;6146;48.128;11.476;2024-02-21T04:37:26;2.27;;;1.50;;
12165;SDS011;6146;48.128;11.476;2024-02-21T04:39:51;1.67;;;1.50;;
12165;SDS011;6146;48.128;11.476;2024-02-21T04:42:17;1.80;;;1.50;;
12165;SDS011;6146;48.128;11.476;2024-02-21T04:44:43;1.90;;;1.30;;
12165;SDS011;6146;48.128;11.476;2024-02-21T04:47:08;2.87;;;1.40;;
12165;SDS011;6146;48.128;11.476;2024-02-21T04:49:34;1.33;;;1.10;;
12165;SDS011;6146;48.128;11.476;2024-02-21T04:52:00;2.00;;;1.40;;
12165;SDS011;6146;48.128;11.476;2024-02-21T04:54:26;2.63;;;1.30;;
12165;SDS011;6146;48.128;11.476;2024-02-21T04:56:51;1.50;;;1.30;;
12165;SDS011;6146;48.128;11.476;2024-02-21T04:59:17;2.87;;;1.43;;
12165;SDS011;6146;48.128;11.476;2024-02-21T05:01:42;3.23;;;1.60;;
12165;SDS011;6146;48.128;11.476;2024-02-21T05:04:08;2.47;;;1.30;;
12165;SDS011;6146;48.128;11.476;2024-02-21T05:06:37;2.73;;;1.53;;
12165;SDS011;6146;48.128;11.476;2024-02-21T05:09:06;1.97;;;1.30;;
12165;SDS011;6146;48.128;11.476;2024-02-21T05:11:33;1.83;;;1.50;;
12165;SDS011;6146;48.128;11.476;2024-02-21T05:13:59;1.93;;;1.20;;
12165;SDS011;6146;48.128;11.476;2024-02-21T05:16:25;2.87;;;1.30;;
12165;SDS011;6146;48.128;11.476;2024-02-21T05:18:50;1.57;;;1.23;;
12165;SDS011;6146;48.128;11.476;2024-02-21T05:21:16;4.13;;;1.30;;
12165;SDS011;6146;48.128;11.476;2024-02-21T05:23:41;2.73;;;1.60;;
12165;SDS011;6146;48.128;11.476;2024-02-21T05:26:07;1.40;;;1.17;;
12165;SDS011;6146;48.128;11.476;2024-02-21T05:28:32;1.30;;;1.20;;
12165;SDS011;6146;48.128;11.476;2024-02-21T05:30:58;3.17;;;1.27;;
12165;SDS011;6146;48.128;11.476;2024-02-21T05:33:24;2.00;;;1.50;;
12165;SDS011;6146;48.128;11.476;2024-02-21T05:35:50;1.30;;;1.20;;
12165;SDS011;6146;48.128;11.476;2024-02-21T05:38:15;3.97;;;1.30;;
12165;SDS011;6146;48.128;11.476;2024-02-21T05:40:41;2.30;;;1.33;;
12165;SDS011;6146;48.128;11.476;2024-02-21T05:43:07;1.77;;;1.60;;
12165;SDS011;6146;48.128;11.476;2024-02-21T05:45:33;1.40;;;1.30;;
12165;SDS011;6146;48.128;11.476;2024-02-21T05:47:59;1.53;;;1.30;;
12165;SDS011;6146;48.128;11.476;2024-02-21T05:50:25;2.17;;;1.33;;
12165;SDS011;6146;48.128;11.476;2024-02-21T05:52:52;2.40;;;1.00;;
12165;SDS011;6146;48.128;11.476;2024-02-21T05:55:19;4.13;;;1.27;;
12165;SDS011;6146;48.128;11.476;2024-02-21T05:57:44;0.90;;;0.90;;
12165;SDS011;6146;48.128;11.476;2024-02-21T06:00:10;2.23;;;1.23;;
12165;SDS011;6146;48.128;11.476;2024-02-21T06:02:36;2.13;;;1.40;;
12165;SDS011;6146;48.128;11.476;2024-02-21T06:05:01;4.73;;;1.90;;
12165;SDS011;6146;48.128;11.476;2024-02-21T06:07:27;1.40;;;1.27;;
12165;SDS011;6146;48.128;11.476;2024-02-21T06:09:53;3.77;;;1.10;;
12165;SDS011;6146;48.128;11.476;2024-02-21T06:12:18;1.57;;;1.40;;
12165;SDS011;6146;48.128;11.476;2024-02-21T06:14:44;1.53;;;1.30;;
12165;SDS011;6146;48.128;11.476;2024-02-21T06:17:10;1.97;;;1.10;;
12165;SDS011;6146;48.128;11.476;2024-02-21T06:19:37;1.43;;;1.23;;
12165;SDS011;6146;48.128;11.476;2024-02-21T06:22:06;2.90;;;1.40;;
12165;SDS011;6146;48.128;11.476;2024-02-21T06:24:33;1.67;;;1.00;;
12165;SDS011;6146;48.128;11.476;2024-02-21T06:26:59;1.23;;;1.07;;
12165;SDS011;6146;48.128;11.476;2024-02-21T06:29:24;1.87;;;1.10;;
12165;SDS011;6146;48.128;11.476;2024-02-21T06:31:50;1.03;;;1.00;;
12165;SDS011;6146;48.128;11.476;2024-02-21T06:34:15;1.03;;;1.00;;
12165;SDS011;6146;48.128;11.476;2024-02-21T06:36:42;2.93;;;1.20;;
12165;SDS011;6146;48.128;11.476;2024-02-21T06:39:07;1.70;;;1.40;;
12165;SDS011;6146;48.128;11.476;2024-02-21T06:41:33;2.33;;;1.20;;
12165;SDS011;6146;48.128;11.476;2024-02-21T06:43:59;2.70;;;1.20;;
12165;SDS011;6146;48.128;11.476;2024-02-21T06:46:25;2.70;;;1.20;;
12165;SDS011;6146;48.128;11.476;2024-02-21T06:48:51;2.00;;;1.50;;
12165;SDS011;6146;48.128;11.476;2024-02-21T06:51:17;1.37;;;1.27;;
12165;SDS011;6146;48.128;11.476;2024-02-21T06:53:43;1.43;;;1.23;;
12165;SDS011;6146;48.128;11.476;2024-02-21T06:56:09;2.23;;;1.13;;
12165;SDS011;6146;48.128;11.476;2024-02-21T06:58:35;1.70;;;1.20;;
12165;SDS011;6146;48.128;11.476;2024-02-21T07:01:01;2.43;;;1.40;;
12165;SDS011;6146;48.128;11.476;2024-02-21T07:03:27;2.07;;;1.60;;
12165;SDS011;6146;48.128;11.476;2024-02-21T07:05:52;3.10;;;1.50;;
12165;SDS011;6146;48.128;11.476;2024-02-21T07:08:18;1.40;;;1.30;;
12165;SDS011;6146;48.128;11.476;2024-02-21T07:10:43;4.57;;;2.50;;
12165;SDS011;6146;48.128;11.476;2024-02-21T07:13:09;1.83;;;1.10;;
12165;SDS011;6146;48.128;11.476;2024-02-21T07:15:35;1.63;;;1.20;;
12165;SDS011;6146;48.128;11.476;2024-02-21T07:18:01;2.23;;;1.50;;
12165;SDS011;6146;48.128;11.476;2024-02-21T07:20:27;2.87;;;1.50;;
12165;SDS011;6146;48.128;11.476;2024-02-21T07:22:52;2.37;;;1.20;;
12165;SDS011;6146;48.128;11.476;2024-02-21T07:25:18;1.57;;;1.20;;
12165;SDS011;6146;48.128;11.476;2024-02-21T07:27:44;1.47;;;1.37;;
12165;SDS011;6146;48.128;11.476;2024-02-21T07:30:10;1.93;;;1.23;;
12165;SDS011;6146;48.128;11.476;2024-02-21T07:32:36;2.90;;;1.00;;
12165;SDS011;6146;48.128;11.476;2024-02-21T07:35:01;2.03;;;1.50;;
12165;SDS011;6146;48.128;11.476;2024-02-21T07:37:27;1.70;;;1.10;;
12165;SDS011;6146;48.128;11.476;2024-02-21T07:39:52;2.10;;;1.30;;
12165;SDS011;6146;48.128;11.476;2024-02-21T07:42:18;1.60;;;1.27;;
12165;SDS011;6146;48.128;11.476;2024-02-21T07:44:44;2.50;;;1.27;;
12165;SDS011;6146;48.128;11.476;2024-02-21T07:47:10;1.70;;;1.30;;
12165;SDS011;6146;48.128;11.476;2024-02-21T07:49:43;2.07;;;1.03;;
12165;SDS011;6146;48.128;11.476;2024-02-21T07:52:09;1.97;;;1.17;;
12165;SDS011;6146;48.128;11.476;2024-02-21T07:54:35;2.77;;;1.47;;
12165;SDS011;6146;48.128;11.476;2024-02-21T07:57:00;2.77;;;1.10;;
12165;SDS011;6146;48.128;11.476;2024-02-21T07:59:26;3.07;;;1.00;;
12165;SDS011;6146;48.128;11.476;2024-02-21T08:01:52;1.30;;;1.10;;
12165;SDS011;6146;48.128;11.476;2024-02-21T08:04:21;1.97;;;1.30;;
12165;SDS011;6146;48.128;11.476;2024-02-21T08:06:50;2.17;;;1.10;;
12165;SDS011;6146;48.128;11.476;2024-02-21T08:09:20;1.17;;;1.07;;
12165;SDS011;6146;48.128;11.476;2024-02-21T08:11:49;2.77;;;1.00;;
12165;SDS011;6146;48.128;11.476;2024-02-21T08:14:14;1.20;;;1.10;;
12165;SDS011;6146;48.128;11.476;2024-02-21T08:16:41;2.17;;;1.10;;
12165;SDS011;6146;48.128;11.476;2024-02-21T08:19:07;1.67;;;1.40;;
12165;SDS011;6146;48.128;11.476;2024-02-21T08:21:33;3.40;;;1.10;;
12165;SDS011;6146;48.128;11.476;2024-02-21T08:23:58;1.33;;;1.10;;
12165;SDS011;6146;48.128;11.476;2024-02-21T08:26:24;1.53;;;1.10;;
12165;SDS011;6146;48.128;11.476;2024-02-21T08:28:53;1.67;;;1.30;;
12165;SDS011;6146;48.128;11.476;2024-02-21T08:31:19;2.43;;;1.50;;
12165;SDS011;6146;48.128;11.476;2024-02-21T08:33:45;1.73;;;1.40;;
12165;SDS011;6146;48.128;11.476;2024-02-21T08:36:17;2.50;;;1.40;;
12165;SDS011;6146;48.128;11.476;2024-02-21T08:38:44;1.87;;;1.13;;
12165;SDS011;6146;48.128;11.476;2024-02-21T08:41:10;0.97;;;0.97;;
12165;SDS011;6146;48.128;11.476;2024-02-21T08:43:36;1.43;;;1.13;;
12165;SDS011;6146;48.128;11.476;2024-02-21T08:46:02;1.37;;;1.00;;
12165;SDS011;6146;48.128;11.476;2024-02-21T08:48:27;1.20;;;0.80;;
12165;SDS011;6146;48.128;11.476;2024-02-21T08:50:53;0.90;;;0.90;;
12165;SDS011;6146;48.128;11.476;2024-02-21T08:53:19;1.87;;;1.00;;
12165;SDS011;6146;48.128;11.476;2024-02-21T08:55:45;1.17;;;0.73;;
12165;SDS011;6146;48.128;11.476;2024-02-21T08:58:11;2.00;;;1.03;;
12165;SDS011;6146;48.128;11.476;2024-02-21T09:00:36;0.73;;;0.73;;
12165;SDS011;6146;48.128;11.476;2024-02-21T09:03:02;7.77;;;1.10;;
12165;SDS011;6146;48.128;11.476;2024-02-21T09:05:28;2.23;;;1.20;;
12165;SDS011;6146;48.128;11.476;2024-02-21T09:07:54;2.13;;;1.00;;
12165;SDS011;6146;48.128;11.476;2024-02-21T09:10:20;1.20;;;1.00;;
12165;SDS011;6146;48.128;11.476;2024-02-21T09:12:45;1.20;;;1.00;;
12165;SDS011;6146;48.128;11.476;2024-02-21T09:15:12;0.70;;;0.70;;
12165;SDS011;6146;48.128;11.476;2024-02-21T09:17:38;0.70;;;0.70;;
12165;SDS011;6146;48.128;11.476;2024-02-21T09:20:04;1.03;;;0.90;;
12165;SDS011;6146;48.128;11.476;2024-02-21T09:22:31;0.80;;;0.80;;
12165;SDS011;6146;48.128;11.476;2024-02-21T09:24:59;1.57;;;0.83;;
12165;SDS011;6146;48.128;11.476;2024-02-21T09:27:25;1.50;;;0.73;;
12165;SDS011;6146;48.128;11.476;2024-02-21T09:29:50;1.50;;;1.00;;
12165;SDS011;6146;48.128;11.476;2024-02-21T09:32:16;1.73;;;0.90;;
12165;SDS011;6146;48.128;11.476;2024-02-21T09:34:42;1.07;;;0.90;;
12165;SDS011;6146;48.128;11.476;2024-02-21T09:37:08;1.30;;;0.90;;
12165;SDS011;6146;48.128;11.476;2024-02-21T09:39:33;0.83;;;0.80;;
12165;SDS011;6146;48.128;11.476;2024-02-21T09:41:59;2.73;;;1.00;;
12165;SDS011;6146;48.128;11.476;2024-02-21T09:44:33;1.33;;;1.10;;
12165;SDS011;6146;48.128;11.476;2024-02-21T09:47:03;1.00;;;0.90;;
12165;SDS011;6146;48.128;11.476;2024-02-21T09:49:34;1.07;;;0.80;;
12165;SDS011;6146;48.128;11.476;2024-02-21T09:52:04;0.73;;;0.73;;
12165;SDS011;6146;48.128;11.476;2024-02-21T09:54:32;2.53;;;1.10;;
12165;SDS011;6146;48.128;11.476;2024-02-21T09:57:01;1.57;;;0.90;;
12165;SDS011;6146;48.128;11.476;2024-02-21T09:59:31;1.00;;;0.90;;
12165;SDS011;6146;48.128;11.476;2024-02-21T10:01:57;2.67;;;1.13;;
12165;SDS011;6146;48.128;11.476;2024-02-21T10:04:25;1.23;;;0.90;;
12165;SDS011;6146;48.128;11.476;2024-02-21T10:06:51;1.77;;;1.00;;
12165;SDS011;6146;48.128;11.476;2024-02-21T10:09:23;2.67;;;0.73;;
12165;SDS011;6146;48.128;11.476;2024-02-21T10:11:50;1.30;;;0.93;;
12165;SDS011;6146;48.128;11.476;2024-02-21T10:14:16;1.90;;;0.80;;
12165;SDS011;6146;48.128;11.476;2024-02-21T10:16:43;1.37;;;0.90;;
12165;SDS011;6146;48.128;11.476;2024-02-21T10:19:19;1.20;;;1.00;;
12165;SDS011;6146;48.128;11.476;2024-02-21T10:21:58;0.50;;;0.50;;
12165;SDS011;6146;48.128;11.476;2024-02-21T10:24:32;2.00;;;0.80;;
12165;SDS011;6146;48.128;11.476;2024-02-21T10:27:05;2.37;;;0.83;;
12165;SDS011;6146;48.128;11.476;2024-02-21T10:29:34;3.33;;;1.23;;
12165;SDS011;6146;48.128;11.476;2024-02-21T10:34:32;1.50;;;1.00;;
12165;SDS011;6146;48.128;11.476;2024-02-21T10:37:04;0.60;;;0.60;;
12165;SDS011;6146;48.128;11.476;2024-02-21T10:39:34;0.63;;;0.63;;
12165;SDS011;6146;48.128;11.476;2024-02-21T10:42:03;0.60;;;0.60;;
12165;SDS011;6146;48.128;11.476;2024-02-21T10:44:30;0.80;;;0.70;;
12165;SDS011;6146;48.128;11.476;2024-02-21T10:46:57;2.60;;;2.37;;
12165;SDS011;6146;48.128;11.476;2024-02-21T10:49:23;2.67;;;0.73;;
12165;SDS011;6146;48.128;11.476;2024-02-21T10:51:54;0.80;;;0.77;;
12165;SDS011;6146;48.128;11.476;2024-02-21T10:57:02;1.80;;;0.67;;
12165;SDS011;6146;48.128;11.476;2024-02-21T10:59:29;0.50;;;0.50;;
12165;SDS011;6146;48.128;11.476;2024-02-21T11:01:57;2.00;;;1.03;;
12165;SDS011;6146;48.128;11.476;2024-02-21T11:04:23;0.43;;;0.43;;
12165;SDS011;6146;48.128;11.476;2024-02-21T11:06:50;0.57;;;0.47;;
12165;SDS011;6146;48.128;11.476;2024-02-21T11:09:16;2.53;;;0.80;;
12165;SDS011;6146;48.128;11.476;2024-02-21T11:11:43;0.60;;;0.53;;
12165;SDS011;6146;48.128;11.476;2024-02-21T11:14:10;1.03;;;0.70;;
12165;SDS011;6146;48.128;11.476;2024-02-21T11:16:42;0.60;;;0.60;;
12165;SDS011;6146;48.128;11.476;2024-02-21T11:19:09;0.60;;;0.40;;
12165;SDS011;6146;48.128;11.476;2024-02-21T11:21:36;1.80;;;0.70;;
12165;SDS011;6146;48.128;11.476;2024-02-21T11:24:03;0.63;;;0.63;;
12165;SDS011;6146;48.128;11.476;2024-02-21T11:26:29;0.57;;;0.53;;
12165;SDS011;6146;48.128;11.476;2024-02-21T11:28:59;1.90;;;0.97;;
12165;SDS011;6146;48.128;11.476;2024-02-21T11:31:26;1.43;;;0.70;;
12165;SDS011;6146;48.128;11.476;2024-02-21T11:33:54;0.50;;;0.50;;
12165;SDS011;6146;48.128;11.476;2024-02-21T11:36:25;1.30;;;0.63;;
12165;SDS011;6146;48.128;11.476;2024-02-21T11:38:52;0.87;;;0.60;;
12165;SDS011;6146;48.128;11.476;2024-02-21T11:41:20;0.60;;;0.57;;
12165;SDS011;6146;48.128;11.476;2024-02-21T11:43:49;0.67;;;0.67;;
12165;SDS011;6146;48.128;11.476;2024-02-21T11:46:16;0.77;;;0.50;;
12165;SDS011;6146;48.128;11.476;2024-02-21T11:48:42;1.93;;;0.70;;
12165;SDS011;6146;48.128;11.476;2024-02-21T11:51:20;1.03;;;0.70;;
12165;SDS011;6146;48.128;11.476;2024-02-21T11:53:48;0.53;;;0.50;;
12165;SDS011;6146;48.128;11.476;2024-02-21T11:56:13;0.80;;;0.30;;
12165;SDS011;6146;48.128;11.476;2024-02-21T11:58:39;0.83;;;0.60;;
12165;SDS011;6146;48.128;11.476;2024-02-21T12:01:04;1.87;;;0.70;;
12165;SDS011;6146;48.128;11.476;2024-02-21T12:03:32;0.93;;;0.57;;
12165;SDS011;6146;48.128;11.476;2024-02-21T12:06:00;1.07;;;0.97;;
12165;SDS011;6146;48.128;11.476;2024-02-21T12:08:28;0.77;;;0.60;;
12165;SDS011;6146;48.128;11.476;2024-02-21T12:11:15;1.60;;;0.70;;
12165;SDS011;6146;48.128;11.476;2024-02-21T12:13:44;1.53;;;0.50;;
12165;SDS011;6146;48.128;11.476;2024-02-21T12:16:10;0.50;;;0.50;;
12165;SDS011;6146;48.128;11.476;2024-02-21T12:18:36;1.57;;;0.60;;
12165;SDS011;6146;48.128;11.476;2024-02-21T12:21:01;1.40;;;0.80;;
12165;SDS011;6146;48.128;11.476;2024-02-21T12:23:29;2.03;;;0.60;;
12165;SDS011;6146;48.128;11.476;2024-02-21T12:25:55;2.60;;;0.90;;
12165;SDS011;6146;48.128;11.476;2024-02-21T12:28:20;0.90;;;0.57;;
12165;SDS011;6146;48.128;11.476;2024-02-21T12:30:46;2.77;;;0.83;;
12165;SDS011;6146;48.128;11.476;2024-02-21T12:33:12;1.80;;;1.30;;
12165;SDS011;6146;48.128;11.476;2024-02-21T12:35:39;0.50;;;0.50;;
12165;SDS011;6146;48.128;11.476;2024-02-21T12:38:05;0.57;;;0.50;;
12165;SDS011;6146;48.128;11.476;2024-02-21T12:40:30;0.87;;;0.60;;
12165;SDS011;6146;48.128;11.476;2024-02-21T12:42:58;0.87;;;0.70;;
12165;SDS011;6146;48.128;11.476;2024-02-21T12:45:28;1.23;;;0.70;;
12165;SDS011;6146;48.128;11.476;2024-02-21T12:47:53;0.60;;;0.60;;
12165;SDS011;6146;48.128;11.476;2024-02-21T12:50:19;2.13;;;0.80;;
12165;SDS011;6146;48.128;11.476;2024-02-21T12:52:45;0.87;;;0.40;;
12165;SDS011;6146;48.128;11.476;2024-02-21T12:55:11;0.73;;;0.50;;
12165;SDS011;6146;48.128;11.476;2024-02-21T12:57:38;1.63;;;0.60;;
12165;SDS011;6146;48.128;11.476;2024-02-21T13:00:05;1.83;;;1.10;;
12165;SDS011;6146;48.128;11.476;2024-02-21T13:02:33;0.53;;;0.53;;
12165;SDS011;6146;48.128;11.476;2024-02-21T13:04:59;1.37;;;0.47;;
12165;SDS011;6146;48.128;11.476;2024-02-21T13:07:27;1.10;;;0.57;;
12165;SDS011;6146;48.128;11.476;2024-02-21T13:09:53;1.00;;;0.90;;
12165;SDS011;6146;48.128;11.476;2024-02-21T13:12:19;1.33;;;0.73;;
12165;SDS011;6146;48.128;11.476;2024-02-21T13:14:44;1.17;;;0.60;;
12165;SDS011;6146;48.128;11.476;2024-02-21T13:17:10;0.30;;;0.30;;
12165;SDS011;6146;48.128;11.476;2024-02-21T13:19:35;0.40;;;0.40;;
12165;SDS011;6146;48.128;11.476;2024-02-21T13:22:01;1.13;;;0.60;;
12165;SDS011;6146;48.128;11.476;2024-02-21T13:24:27;0.70;;;0.70;;
12165;SDS011;6146;48.128;11.476;2024-02-21T13:26:53;0.70;;;0.47;;
12165;SDS011;6146;48.128;11.476;2024-02-21T13:29:18;0.93;;;0.60;;
12165;SDS011;6146;48.128;11.476;2024-02-21T13:31:45;1.13;;;0.50;;
12165;SDS011;6146;48.128;11.476;2024-02-21T13:34:11;0.40;;;0.40;;
12165;SDS011;6146;48.128;11.476;2024-02-21T13:36:36;1.70;;;0.70;;
12165;SDS011;6146;48.128;11.476;2024-02-21T13:39:02;1.27;;;0.70;;
12165;SDS011;6146;48.128;11.476;2024-02-21T13:41:30;1.27;;;0.77;;
12165;SDS011;6146;48.128;11.476;2024-02-21T13:43:56;0.50;;;0.50;;
12165;SDS011;6146;48.128;11.476;2024-02-21T13:46:21;0.80;;;0.80;;
12165;SDS011;6146;48.128;11.476;2024-02-21T13:48:47;0.50;;;0.50;;
12165;SDS011;6146;48.128;11.476;2024-02-21T13:51:12;1.07;;;0.70;;
12165;SDS011;6146;48.128;11.476;2024-02-21T13:53:38;1.13;;;0.60;;
12165;SDS011;6146;48.128;11.476;2024-02-21T13:56:04;0.73;;;0.73;;
12165;SDS011;6146;48.128;11.476;2024-02-21T13:58:29;1.53;;;0.93;;
12165;SDS011;6146;48.128;11.476;2024-02-21T14:00:55;0.77;;;0.70;;
12165;SDS011;6146;48.128;11.476;2024-02-21T14:03:21;1.33;;;0.60;;
12165;SDS011;6146;48.128;11.476;2024-02-21T14:05:47;1.10;;;0.90;;
12165;SDS011;6146;48.128;11.476;2024-02-21T14:08:13;1.33;;;1.07;;
12165;SDS011;6146;48.128;11.476;2024-02-21T14:10:39;2.00;;;0.80;;
12165;SDS011;6146;48.128;11.476;2024-02-21T14:13:05;1.80;;;0.90;;
12165;SDS011;6146;48.128;11.476;2024-02-21T14:15:30;1.53;;;0.90;;
12165;SDS011;6146;48.128;11.476;2024-02-21T14:17:56;0.87;;;0.70;;
12165;SDS011;6146;48.128;11.476;2024-02-21T14:20:22;2.63;;;1.13;;
12165;SDS011;6146;48.128;11.476;2024-02-21T14:22:47;1.73;;;1.00;;
12165;SDS011;6146;48.128;11.476;2024-02-21T14:25:13;1.70;;;1.00;;
12165;SDS011;6146;48.128;11.476;2024-02-21T14:27:40;1.23;;;1.00;;
12165;SDS011;6146;48.128;11.476;2024-02-21T14:30:06;1.13;;;0.80;;
12165;SDS011;6146;48.128;11.476;2024-02-21T14:32:35;1.30;;;1.00;;
12165;SDS011;6146;48.128;11.476;2024-02-21T14:35:01;1.63;;;0.90;;
12165;SDS011;6146;48.128;11.476;2024-02-21T14:37:27;1.63;;;1.10;;
12165;SDS011;6146;48.128;11.476;2024-02-21T14:39:53;3.33;;;1.13;;
12165;SDS011;6146;48.128;11.476;2024-02-21T14:42:18;3.77;;;1.40;;
12165;SDS011;6146;48.128;11.476;2024-02-21T14:44:44;2.57;;;1.20;;
12165;SDS011;6146;48.128;11.476;2024-02-21T14:47:09;1.93;;;1.13;;